createdAt,value
2022-08-17T00:02:26.216Z,14.38
2022-08-17T00:04:55.029Z,14.90
2022-08-17T00:07:22.236Z,13.27
2022-08-17T00:09:49.341Z,12.85
2022-08-17T00:12:41.605Z,13.35
2022-08-17T00:15:06.372Z,13.25
2022-08-17T00:17:38.175Z,13.70
2022-08-17T00:20:06.584Z,15.95
2022-08-17T00:22:36.411Z,15.73
2022-08-17T00:25:15.306Z,16.77
2022-08-17T00:27:42.497Z,16.77
2022-08-17T00:30:12.883Z,16.27
2022-08-17T00:33:11.876Z,14.95
2022-08-17T00:35:34.690Z,14.50
2022-08-17T00:38:01.835Z,14.93
2022-08-17T00:40:40.096Z,13.75
2022-08-17T00:43:44.287Z,13.55
2022-08-17T00:46:23.300Z,13.30
2022-08-17T00:48:50.907Z,12.82
2022-08-17T00:51:48.771Z,12.32
2022-08-17T00:54:23.106Z,12.70
2022-08-17T00:56:56.994Z,12.10
2022-08-17T00:59:33.794Z,12.70
2022-08-17T01:02:01.540Z,13.30
2022-08-17T01:04:30.351Z,14.95
2022-08-17T01:06:59.150Z,15.35
2022-08-17T01:09:26.194Z,14.70
2022-08-17T01:11:53.585Z,13.15
2022-08-17T01:14:22.575Z,13.18
2022-08-17T01:16:54.566Z,13.82
2022-08-17T01:19:27.457Z,13.35
2022-08-17T01:22:14.420Z,15.13
2022-08-17T01:24:49.475Z,17.15
2022-08-17T01:27:18.473Z,16.60
2022-08-17T01:29:57.894Z,15.55
2022-08-17T01:32:28.181Z,15.10
2022-08-17T01:34:55.567Z,14.52
2022-08-17T01:37:31.752Z,13.93
2022-08-17T01:40:26.409Z,14.38
2022-08-17T01:43:07.351Z,14.02
2022-08-17T01:45:43.062Z,13.20
2022-08-17T01:48:11.025Z,13.50
2022-08-17T01:50:41.077Z,14.40
2022-08-17T01:53:14.393Z,14.45
2022-08-17T01:55:51.045Z,13.57
2022-08-17T01:58:19.705Z,14.13
2022-08-17T02:01:00.720Z,13.50
2022-08-17T02:03:30.892Z,14.30
2022-08-17T02:05:57.899Z,13.88
2022-08-17T02:08:37.311Z,14.05
2022-08-17T02:11:14.706Z,14.40
2022-08-17T02:13:45.934Z,14.20
2022-08-17T02:16:13.644Z,14.82
2022-08-17T02:18:40.690Z,14.45
2022-08-17T02:21:09.030Z,15.32
2022-08-17T02:23:42.300Z,14.38
2022-08-17T02:26:09.344Z,14.23
2022-08-17T02:28:52.544Z,14.63
2022-08-17T02:31:19.941Z,15.13
2022-08-17T02:33:46.875Z,15.15
2022-08-17T02:36:30.360Z,14.40
2022-08-17T02:38:58.659Z,15.73
2022-08-17T02:41:25.753Z,14.48
2022-08-17T02:43:53.636Z,14.82
2022-08-17T02:46:20.718Z,14.65
2022-08-17T02:48:47.768Z,14.82
2022-08-17T02:51:15.035Z,14.40
2022-08-17T02:53:41.950Z,13.50
2022-08-17T02:56:08.936Z,13.82
2022-08-17T02:58:36.271Z,14.18
2022-08-17T03:01:08.574Z,14.65
2022-08-17T03:03:37.413Z,14.07
2022-08-17T03:06:06.214Z,13.60
2022-08-17T03:08:33.983Z,13.52
2022-08-17T03:11:01.000Z,13.85
2022-08-17T03:13:27.961Z,13.93
2022-08-17T03:15:55.092Z,14.25
2022-08-17T03:18:24.672Z,13.30
2022-08-17T03:21:00.400Z,13.98
2022-08-17T03:23:29.623Z,13.88
2022-08-17T03:25:58.493Z,14.52
2022-08-17T03:28:26.383Z,14.00
2022-08-17T03:30:53.780Z,14.57
2022-08-17T03:33:21.232Z,13.80
2022-08-17T03:35:48.547Z,13.10
2022-08-17T03:38:17.458Z,13.77
2022-08-17T03:40:57.941Z,13.55
2022-08-17T03:43:30.168Z,13.80
2022-08-17T03:46:33.961Z,13.93
2022-08-17T03:49:25.390Z,12.60
2022-08-17T03:52:12.957Z,12.55
2022-08-17T03:54:59.339Z,14.15
2022-08-17T03:57:26.897Z,13.73
2022-08-17T03:59:55.310Z,12.68
2022-08-17T04:02:31.851Z,13.05
2022-08-17T04:04:59.873Z,12.95
2022-08-17T04:07:30.567Z,13.23
2022-08-17T04:09:58.159Z,13.35
2022-08-17T04:12:30.852Z,13.38
2022-08-17T04:14:58.377Z,13.38
2022-08-17T04:17:29.314Z,12.80
2022-08-17T04:19:57.127Z,13.23
2022-08-17T04:22:30.205Z,13.63
2022-08-17T04:25:05.264Z,12.77
2022-08-17T04:27:32.381Z,12.80
2022-08-17T04:29:59.337Z,12.15
2022-08-17T04:33:00.802Z,11.60
2022-08-17T04:35:18.474Z,12.20
2022-08-17T04:37:45.691Z,12.88
2022-08-17T04:40:31.001Z,12.15
2022-08-17T04:43:09.013Z,12.32
2022-08-17T04:45:51.259Z,12.25
2022-08-17T04:48:23.068Z,11.75
2022-08-17T04:50:55.578Z,11.98
2022-08-17T04:53:22.497Z,12.18
2022-08-17T04:55:52.554Z,11.85
2022-08-17T04:58:20.420Z,11.27
2022-08-17T05:00:47.810Z,11.50
2022-08-17T05:03:14.832Z,10.85
2022-08-17T05:05:49.812Z,11.18
2022-08-17T05:08:19.628Z,10.25
2022-08-17T05:10:48.713Z,10.98
2022-08-17T05:13:20.419Z,10.65
2022-08-17T05:15:49.900Z,10.75
2022-08-17T05:18:17.610Z,10.60
2022-08-17T05:20:45.455Z,9.88
2022-08-17T05:23:16.640Z,10.27
2022-08-17T05:25:50.327Z,10.45
2022-08-17T05:28:24.175Z,10.38
2022-08-17T05:30:57.987Z,9.73
2022-08-17T05:33:28.932Z,9.48
2022-08-17T05:35:58.334Z,9.32
2022-08-17T05:38:28.624Z,10.23
2022-08-17T05:40:56.323Z,9.52
2022-08-17T05:43:30.121Z,9.50
2022-08-17T05:46:20.083Z,8.88
2022-08-17T05:48:51.576Z,9.55
2022-08-17T05:52:04.199Z,9.15
2022-08-17T05:54:57.061Z,10.15
2022-08-17T05:57:43.410Z,9.73
2022-08-17T06:00:33.077Z,8.80
2022-08-17T06:03:36.617Z,9.07
2022-08-17T06:06:39.828Z,10.25
2022-08-17T06:09:33.937Z,9.38
2022-08-17T06:12:56.502Z,9.13
2022-08-17T06:16:33.497Z,9.35
2022-08-17T06:19:19.901Z,9.18
2022-08-17T06:21:51.301Z,9.32
2022-08-17T06:24:42.067Z,9.60
2022-08-17T06:27:35.668Z,9.18
2022-08-17T06:30:27.404Z,10.00
2022-08-17T06:32:59.582Z,10.93
2022-08-17T06:36:02.758Z,9.80
2022-08-17T06:38:52.530Z,9.70
2022-08-17T06:41:37.992Z,8.73
2022-08-17T06:44:49.933Z,8.77
2022-08-17T06:47:28.542Z,9.93
2022-08-17T06:50:22.037Z,9.35
2022-08-17T06:53:08.913Z,9.93
2022-08-17T06:56:04.742Z,9.65
2022-08-17T06:58:33.744Z,9.90
2022-08-17T07:01:09.046Z,9.55
2022-08-17T07:03:44.884Z,9.10
2022-08-17T07:06:21.611Z,9.57
2022-08-17T07:09:02.474Z,8.55
2022-08-17T07:11:48.661Z,9.75
2022-08-17T07:14:47.672Z,9.30
2022-08-17T07:17:18.407Z,9.57
2022-08-17T07:19:49.112Z,9.48
2022-08-17T07:22:57.751Z,9.25
2022-08-17T07:25:30.524Z,9.35
2022-08-17T07:28:02.574Z,9.55
2022-08-17T07:30:48.970Z,9.43
2022-08-17T07:33:22.725Z,9.00
2022-08-17T07:35:50.586Z,7.95
2022-08-17T07:38:35.639Z,8.15
2022-08-17T07:41:07.729Z,8.55
2022-08-17T07:43:56.487Z,8.55
2022-08-17T07:46:51.504Z,8.43
2022-08-17T07:49:34.423Z,8.60
2022-08-17T07:52:24.779Z,8.52
2022-08-17T07:54:54.701Z,8.00
2022-08-17T07:57:27.944Z,8.23
2022-08-17T08:00:03.004Z,7.97
2022-08-17T08:03:04.899Z,8.38
2022-08-17T08:05:49.973Z,8.43
2022-08-17T08:08:28.233Z,8.68
2022-08-17T08:11:15.675Z,7.93
2022-08-17T08:13:45.565Z,8.02
2022-08-17T08:16:29.256Z,8.32
2022-08-17T08:19:02.784Z,8.73
2022-08-17T08:21:52.197Z,8.02
2022-08-17T08:24:42.122Z,8.77
2022-08-17T08:27:18.438Z,8.35
2022-08-17T08:30:14.142Z,10.15
2022-08-17T08:33:12.574Z,8.75
2022-08-17T08:37:14.525Z,8.27
2022-08-17T08:39:31.178Z,7.97
2022-08-17T08:42:26.490Z,7.90
2022-08-17T08:45:20.554Z,9.43
2022-08-17T08:48:53.043Z,9.70
2022-08-17T08:52:00.212Z,8.23
2022-08-17T08:55:26.226Z,9.10
2022-08-17T08:58:07.632Z,7.88
2022-08-17T09:00:58.471Z,7.90
2022-08-17T09:03:52.747Z,7.43
2022-08-17T09:07:08.581Z,8.02
2022-08-17T09:09:59.467Z,7.57
2022-08-17T09:13:10.063Z,7.57
2022-08-17T09:15:49.898Z,7.35
2022-08-17T09:19:02.914Z,7.22
2022-08-17T09:21:31.243Z,7.32
2022-08-17T09:24:09.804Z,7.25
2022-08-17T09:26:39.493Z,7.32
2022-08-17T09:29:13.726Z,7.32
2022-08-17T09:32:01.616Z,7.53
2022-08-17T09:34:43.796Z,7.32
2022-08-17T09:37:43.428Z,7.28
2022-08-17T09:40:24.880Z,6.82
2022-08-17T09:43:19.498Z,8.07
2022-08-17T09:45:52.926Z,6.43
2022-08-17T09:48:39.394Z,6.50
2022-08-17T09:51:22.870Z,6.95
2022-08-17T09:53:51.033Z,7.10
2022-08-17T09:56:45.966Z,6.95
2022-08-17T09:59:52.929Z,7.45
2022-08-17T10:03:03.257Z,6.97
2022-08-17T10:05:56.856Z,7.18
2022-08-17T10:08:42.473Z,7.40
2022-08-17T10:11:13.901Z,7.63
2022-08-17T10:13:59.514Z,7.57
2022-08-17T10:16:41.310Z,7.25
2022-08-17T10:20:00.139Z,7.03
2022-08-17T10:23:04.538Z,6.82
2022-08-17T10:25:55.979Z,7.85
2022-08-17T10:28:30.520Z,8.05
2022-08-17T10:31:34.452Z,7.88
2022-08-17T10:34:28.872Z,7.68
2022-08-17T10:37:19.871Z,7.57
2022-08-17T10:40:24.823Z,7.63
2022-08-17T10:43:22.977Z,7.55
2022-08-17T10:46:40.889Z,8.52
2022-08-17T10:49:22.603Z,7.43
2022-08-17T10:51:56.814Z,7.65
2022-08-17T10:54:41.952Z,7.90
2022-08-17T10:57:27.041Z,7.53
2022-08-17T10:59:56.915Z,7.43
2022-08-17T11:02:31.589Z,7.60
2022-08-17T11:05:13.548Z,7.57
2022-08-17T11:08:07.466Z,7.88
2022-08-17T11:10:56.335Z,7.97
2022-08-17T11:14:00.503Z,7.90
2022-08-17T11:16:55.576Z,7.35
2022-08-17T11:19:51.854Z,7.05
2022-08-17T11:22:44.926Z,6.97
2022-08-17T11:25:22.697Z,7.28
2022-08-17T11:28:05.710Z,7.15
2022-08-17T11:30:54.528Z,7.03
2022-08-17T11:33:34.054Z,7.18
2022-08-17T11:36:25.448Z,7.55
2022-08-17T11:39:02.907Z,7.00
2022-08-17T11:42:00.602Z,7.60
2022-08-17T11:44:54.073Z,7.15
2022-08-17T11:48:27.007Z,7.50
2022-08-17T11:51:18.442Z,7.82
2022-08-17T11:53:45.927Z,8.20
2022-08-17T11:56:45.202Z,7.88
2022-08-17T11:59:35.867Z,7.60
2022-08-17T12:02:35.198Z,7.53
2022-08-17T12:05:27.505Z,7.57
2022-08-17T12:08:15.340Z,7.70
2022-08-17T12:11:01.133Z,7.47
2022-08-17T12:13:38.539Z,7.72
2022-08-17T12:16:07.366Z,8.15
2022-08-17T12:18:38.404Z,8.00
2022-08-17T12:21:17.643Z,7.43
2022-08-17T12:24:05.332Z,8.15
2022-08-17T12:26:36.067Z,7.93
2022-08-17T12:29:18.306Z,8.07
2022-08-17T12:32:02.133Z,8.00
2022-08-17T12:34:39.859Z,7.80
2022-08-17T12:37:31.693Z,6.97
2022-08-17T12:40:19.522Z,7.53
2022-08-17T12:45:29.743Z,7.90
2022-08-17T12:48:07.887Z,7.70
2022-08-17T12:50:44.901Z,7.20
2022-08-17T12:53:20.744Z,7.20
2022-08-17T12:55:49.546Z,8.13
2022-08-17T12:58:25.839Z,7.55
2022-08-17T13:01:09.876Z,7.40
2022-08-17T13:03:44.762Z,7.78
2022-08-17T13:06:15.042Z,7.80
2022-08-17T13:08:48.131Z,7.28
2022-08-17T13:11:16.165Z,7.63
2022-08-17T13:13:54.297Z,7.57
2022-08-17T13:16:28.212Z,7.60
2022-08-17T13:19:08.851Z,7.45
2022-08-17T13:21:38.018Z,8.05
2022-08-17T13:24:24.148Z,8.05
2022-08-17T13:27:08.302Z,6.95
2022-08-17T13:29:40.861Z,7.82
2022-08-17T13:32:14.266Z,7.75
2022-08-17T13:34:56.139Z,6.60
2022-08-17T13:37:36.061Z,7.35
2022-08-17T13:40:23.220Z,7.47
2022-08-17T13:42:54.252Z,7.20
2022-08-17T13:45:36.460Z,7.47
2022-08-17T13:48:26.986Z,7.13
2022-08-17T13:50:56.902Z,7.13
2022-08-17T13:53:31.179Z,6.90
2022-08-17T13:56:07.389Z,7.45
2022-08-17T13:59:00.295Z,7.82
2022-08-17T14:01:53.900Z,7.45
2022-08-17T14:04:31.574Z,7.22
2022-08-17T14:07:29.536Z,7.65
2022-08-17T14:10:07.989Z,8.05
2022-08-17T14:12:38.741Z,8.15
2022-08-17T14:15:08.837Z,7.32
2022-08-17T14:17:38.911Z,7.63
2022-08-17T14:20:10.371Z,7.30
2022-08-17T14:22:41.250Z,8.85
2022-08-17T14:25:10.721Z,8.10
2022-08-17T14:27:52.245Z,7.60
2022-08-17T14:30:23.447Z,7.30
2022-08-17T14:32:52.106Z,7.63
2022-08-17T14:35:22.420Z,7.50
2022-08-17T14:37:50.582Z,7.25
2022-08-17T14:40:20.834Z,7.43
2022-08-17T14:42:48.424Z,7.15
2022-08-17T14:45:31.722Z,7.90
2022-08-17T14:47:59.632Z,6.93
2022-08-17T14:50:27.231Z,7.60
2022-08-17T14:52:58.058Z,7.97
2022-08-17T14:55:26.191Z,8.10
2022-08-17T14:57:53.466Z,7.35
2022-08-17T15:00:20.527Z,7.70
2022-08-17T15:02:54.781Z,8.40
2022-08-17T15:05:24.963Z,7.63
2022-08-17T15:07:53.497Z,7.88
2022-08-17T15:10:20.938Z,7.30
2022-08-17T15:12:48.588Z,7.28
2022-08-17T15:15:17.696Z,7.93
2022-08-17T15:17:46.053Z,8.00
2022-08-17T15:20:25.396Z,8.10
2022-08-17T15:22:55.527Z,8.13
2022-08-17T15:25:25.037Z,7.50
2022-08-17T15:27:52.778Z,8.02
2022-08-17T15:30:20.153Z,8.20
2022-08-17T15:32:54.452Z,8.02
2022-08-17T15:35:28.197Z,8.30
2022-08-17T15:38:04.941Z,7.95
2022-08-17T15:40:39.304Z,7.88
2022-08-17T15:43:27.088Z,8.00
2022-08-17T15:46:10.882Z,7.85
2022-08-17T15:48:42.456Z,8.18
2022-08-17T15:51:18.501Z,7.97
2022-08-17T15:53:49.707Z,8.20
2022-08-17T15:56:17.427Z,8.48
2022-08-17T15:58:46.838Z,8.02
2022-08-17T16:01:18.793Z,8.07
2022-08-17T16:04:06.906Z,8.15
2022-08-17T16:06:34.772Z,8.10
2022-08-17T16:09:01.772Z,8.13
2022-08-17T16:11:28.773Z,7.97
2022-08-17T16:13:56.091Z,8.35
2022-08-17T16:16:23.786Z,7.97
2022-08-17T16:18:54.763Z,9.90
2022-08-17T16:21:25.986Z,9.23
2022-08-17T16:24:13.074Z,9.80
2022-08-17T16:26:42.789Z,8.98
2022-08-17T16:29:09.876Z,8.88
2022-08-17T16:31:37.840Z,8.88
2022-08-17T16:34:17.716Z,8.38
2022-08-17T16:36:54.738Z,9.50
2022-08-17T16:39:27.215Z,8.43
2022-08-17T16:41:56.100Z,8.68
2022-08-17T16:44:23.242Z,9.30
2022-08-17T16:46:50.538Z,8.10
2022-08-17T16:49:35.282Z,8.25
2022-08-17T16:52:07.049Z,8.93
2022-08-17T16:54:35.524Z,9.40
2022-08-17T16:57:05.186Z,8.45
2022-08-17T16:59:40.914Z,9.50
2022-08-17T17:02:14.172Z,9.20
2022-08-17T17:05:25.213Z,9.18
2022-08-17T17:08:37.500Z,9.18
2022-08-17T17:11:41.740Z,9.30
2022-08-17T17:14:32.367Z,10.20
2022-08-17T17:17:06.978Z,10.05
2022-08-17T17:20:06.391Z,10.48
2022-08-17T17:22:48.041Z,10.43
2022-08-17T17:25:41.064Z,10.40
2022-08-17T17:29:00.195Z,10.27
2022-08-17T17:31:39.787Z,9.93
2022-08-17T17:34:10.555Z,9.70
2022-08-17T17:36:47.097Z,10.32
2022-08-17T17:39:31.925Z,10.80
2022-08-17T17:42:05.816Z,9.70
2022-08-17T17:44:39.047Z,11.15
2022-08-17T17:47:06.198Z,10.23
2022-08-17T17:49:43.967Z,10.65
2022-08-17T17:52:49.745Z,10.40
2022-08-17T17:56:01.869Z,10.85
2022-08-17T17:59:06.598Z,11.82
2022-08-17T18:02:51.145Z,11.00
2022-08-17T18:05:38.867Z,11.32
2022-08-17T18:09:06.329Z,11.95
2022-08-17T18:11:58.951Z,12.35
2022-08-17T18:15:04.723Z,11.35
2022-08-17T18:17:31.658Z,11.60
2022-08-17T18:19:58.627Z,11.80
2022-08-17T18:22:27.786Z,12.63
2022-08-17T18:24:57.220Z,11.77
2022-08-17T18:27:50.869Z,11.93
2022-08-17T18:30:17.812Z,12.60
2022-08-17T18:32:46.660Z,11.85
2022-08-17T18:35:16.288Z,11.80
2022-08-17T18:37:51.682Z,12.02
2022-08-17T18:40:21.403Z,12.85
2022-08-17T18:43:44.222Z,12.77
2022-08-17T18:46:30.451Z,13.30
2022-08-17T18:49:01.984Z,12.88
2022-08-17T18:51:41.856Z,12.32
2022-08-17T18:54:23.168Z,13.18
2022-08-17T18:56:59.355Z,13.55
2022-08-17T18:59:48.260Z,13.23
2022-08-17T19:02:28.358Z,13.60
2022-08-17T19:05:13.341Z,14.40
2022-08-17T19:07:46.259Z,14.75
2022-08-17T19:10:30.535Z,16.50
2022-08-17T19:13:13.660Z,15.85
2022-08-17T19:16:12.160Z,15.35
2022-08-17T19:18:56.086Z,15.48
2022-08-17T19:21:37.318Z,14.93
2022-08-17T19:24:14.401Z,15.88
2022-08-17T19:26:54.799Z,16.52
2022-08-17T19:29:38.805Z,16.10
2022-08-17T19:32:09.179Z,16.17
2022-08-17T19:34:38.336Z,15.60
2022-08-17T19:37:13.108Z,15.77
2022-08-17T19:39:59.064Z,15.75
2022-08-17T19:42:58.112Z,16.05
2022-08-17T19:45:45.171Z,16.63
2022-08-17T19:48:55.970Z,16.10
2022-08-17T19:52:04.984Z,16.23
2022-08-17T19:54:56.564Z,14.98
2022-08-17T19:57:44.248Z,16.38
2022-08-17T20:00:16.282Z,15.25
2022-08-17T20:03:26.086Z,15.48
2022-08-17T20:06:14.345Z,15.32
2022-08-17T20:09:03.034Z,15.63
2022-08-17T20:11:42.521Z,16.25
2022-08-17T20:14:19.345Z,15.70
2022-08-17T20:16:46.450Z,15.63
2022-08-17T20:19:51.906Z,16.52
2022-08-17T20:22:49.364Z,15.95
2022-08-17T20:25:54.685Z,16.05
2022-08-17T20:28:31.776Z,15.65
2022-08-17T20:30:58.982Z,18.23
2022-08-17T20:33:36.967Z,20.48
2022-08-17T20:36:18.795Z,20.60
2022-08-17T20:38:54.468Z,18.85
2022-08-17T20:41:27.604Z,17.38
2022-08-17T20:43:57.591Z,15.88
2022-08-17T20:46:51.437Z,15.18
2022-08-17T20:49:39.378Z,16.30
2022-08-17T20:52:15.628Z,17.20
2022-08-17T20:54:53.219Z,17.05
2022-08-17T20:57:32.378Z,17.52
2022-08-17T21:00:19.337Z,16.33
2022-08-17T21:02:51.471Z,16.23
2022-08-17T21:05:38.890Z,15.70
2022-08-17T21:08:18.482Z,15.98
2022-08-17T21:10:46.894Z,15.75
2022-08-17T21:13:15.639Z,15.95
2022-08-17T21:15:49.129Z,15.48
2022-08-17T21:18:41.763Z,14.75
2022-08-17T21:22:01.405Z,13.98
2022-08-17T21:25:22.603Z,16.02
2022-08-17T21:28:29.940Z,15.80
2022-08-17T21:31:09.133Z,15.77
2022-08-17T21:33:40.018Z,15.45
2022-08-17T21:36:13.037Z,15.48
2022-08-17T21:39:01.033Z,15.80
2022-08-17T21:41:34.281Z,16.02
2022-08-17T21:44:18.666Z,17.00
2022-08-17T21:46:49.450Z,16.63
2022-08-17T21:49:21.404Z,15.43
2022-08-17T21:51:56.622Z,15.52
2022-08-17T21:54:35.518Z,15.10
2022-08-17T21:57:06.951Z,15.15
2022-08-17T21:59:44.203Z,16.25
2022-08-17T22:02:25.442Z,15.20
2022-08-17T22:05:02.596Z,15.30
2022-08-17T22:07:42.104Z,15.65
2022-08-17T22:10:30.637Z,14.50
2022-08-17T22:13:16.853Z,14.75
2022-08-17T22:15:52.970Z,14.65
2022-08-17T22:18:27.334Z,15.45
2022-08-17T22:20:58.061Z,14.43
2022-08-17T22:23:51.886Z,15.60
2022-08-17T22:26:22.568Z,15.93
2022-08-17T22:28:56.655Z,15.77
2022-08-17T22:31:26.310Z,16.13
2022-08-17T22:34:14.234Z,16.27
2022-08-17T22:36:42.699Z,16.55
2022-08-17T22:39:09.495Z,16.67
2022-08-17T22:41:51.037Z,16.58
2022-08-17T22:44:24.998Z,16.92
2022-08-17T22:46:57.091Z,16.33
2022-08-17T22:49:38.543Z,16.95
2022-08-17T22:52:56.082Z,17.10
2022-08-17T22:55:42.485Z,16.27
2022-08-17T22:58:31.946Z,16.30
2022-08-17T23:01:29.162Z,17.02
2022-08-17T23:03:59.726Z,16.15
2022-08-17T23:06:27.639Z,17.42
2022-08-17T23:08:55.060Z,16.65
2022-08-17T23:11:36.688Z,16.20
2022-08-17T23:14:16.560Z,15.70
2022-08-17T23:16:43.614Z,16.05
2022-08-17T23:19:17.641Z,16.65
2022-08-17T23:21:45.141Z,16.08
2022-08-17T23:24:24.888Z,15.48
2022-08-17T23:26:52.352Z,16.08
2022-08-17T23:29:20.558Z,16.25
2022-08-17T23:31:49.684Z,16.73
2022-08-17T23:34:18.492Z,16.23
2022-08-17T23:36:52.276Z,16.48
2022-08-17T23:39:24.664Z,16.13
2022-08-17T23:41:59.664Z,16.75
2022-08-17T23:47:12.968Z,16.40
2022-08-17T23:49:41.339Z,16.30
2022-08-17T23:52:15.264Z,16.60
2022-08-17T23:54:47.148Z,15.88
2022-08-17T23:57:18.258Z,16.52
2022-08-17T23:59:45.720Z,16.92
